createdAt,value
2023-05-10T00:01:19.671Z,100.00
2023-05-10T00:03:46.220Z,100.00
2023-05-10T00:06:16.120Z,100.00
2023-05-10T00:08:42.630Z,100.00
2023-05-10T00:11:09.057Z,100.00
2023-05-10T00:13:35.621Z,100.00
2023-05-10T00:16:02.138Z,100.00
2023-05-10T00:18:28.688Z,100.00
2023-05-10T00:20:55.183Z,100.00
2023-05-10T00:23:21.646Z,100.00
2023-05-10T00:25:48.086Z,100.00
2023-05-10T00:28:14.606Z,100.00
2023-05-10T00:30:41.028Z,100.00
2023-05-10T00:33:07.932Z,100.00
2023-05-10T00:35:34.981Z,100.00
2023-05-10T00:38:01.954Z,100.00
2023-05-10T00:40:29.675Z,100.00
2023-05-10T00:42:56.689Z,100.00
2023-05-10T00:45:23.980Z,100.00
2023-05-10T00:47:51.161Z,100.00
2023-05-10T00:50:18.135Z,100.00
2023-05-10T00:52:45.024Z,100.00
2023-05-10T00:55:13.165Z,100.00
2023-05-10T00:57:40.610Z,100.00
2023-05-10T01:00:07.889Z,100.00
2023-05-10T01:02:35.544Z,100.00
2023-05-10T01:05:04.739Z,100.00
2023-05-10T01:07:31.532Z,100.00
2023-05-10T01:09:58.846Z,100.00
2023-05-10T01:12:28.592Z,100.00
2023-05-10T01:14:55.935Z,100.00
2023-05-10T01:17:23.449Z,100.00
2023-05-10T01:19:50.343Z,100.00
2023-05-10T01:22:47.743Z,100.00
2023-05-10T01:25:29.550Z,100.00
2023-05-10T01:28:05.273Z,100.00
2023-05-10T01:31:09.518Z,100.00
2023-05-10T01:33:53.213Z,100.00
2023-05-10T01:36:36.076Z,100.00
2023-05-10T01:39:06.792Z,100.00
2023-05-10T01:42:00.292Z,100.00
2023-05-10T01:44:59.313Z,100.00
2023-05-10T01:47:49.649Z,100.00
2023-05-10T01:50:20.855Z,100.00
2023-05-10T01:52:58.546Z,100.00
2023-05-10T01:55:30.490Z,100.00
2023-05-10T01:58:03.968Z,100.00
2023-05-10T02:00:32.236Z,100.00
2023-05-10T02:03:01.049Z,100.00
2023-05-10T02:05:30.131Z,100.00
2023-05-10T02:07:59.123Z,100.00
2023-05-10T02:10:26.962Z,100.00
2023-05-10T02:12:54.809Z,100.00
2023-05-10T02:15:25.673Z,100.00
2023-05-10T02:17:55.410Z,100.00
2023-05-10T02:20:24.294Z,100.00
2023-05-10T02:22:53.427Z,100.00
2023-05-10T02:25:22.598Z,100.00
2023-05-10T02:27:49.887Z,100.00
2023-05-10T02:30:17.404Z,100.00
2023-05-10T02:32:45.523Z,100.00
2023-05-10T02:35:12.234Z,100.00
2023-05-10T02:37:40.739Z,100.00
2023-05-10T02:40:08.473Z,100.00
2023-05-10T02:42:37.944Z,100.00
2023-05-10T02:45:09.446Z,100.00
2023-05-10T02:47:36.339Z,100.00
2023-05-10T02:50:02.961Z,100.00
2023-05-10T02:52:36.999Z,100.00
2023-05-10T02:55:07.660Z,100.00
2023-05-10T02:57:35.839Z,100.00
2023-05-10T03:00:04.280Z,100.00
2023-05-10T03:02:31.974Z,100.00
2023-05-10T03:04:58.602Z,100.00
2023-05-10T03:07:25.320Z,100.00
2023-05-10T03:09:52.135Z,100.00
2023-05-10T03:12:27.552Z,100.00
2023-05-10T03:15:16.947Z,100.00
2023-05-10T03:17:59.582Z,100.00
2023-05-10T03:20:30.605Z,100.00
2023-05-10T03:23:20.539Z,100.00
2023-05-10T03:25:48.922Z,100.00
2023-05-10T03:28:18.196Z,100.00
2023-05-10T03:30:45.941Z,100.00
2023-05-10T03:33:13.751Z,100.00
2023-05-10T03:35:40.437Z,100.00
2023-05-10T03:38:06.924Z,100.00
2023-05-10T03:40:33.503Z,100.00
2023-05-10T03:43:00.274Z,100.00
2023-05-10T03:45:27.221Z,100.00
2023-05-10T03:47:54.041Z,100.00
2023-05-10T03:50:22.794Z,100.00
2023-05-10T03:52:49.307Z,100.00
2023-05-10T03:55:16.144Z,100.00
2023-05-10T03:57:42.669Z,100.00
2023-05-10T04:00:10.593Z,100.00
2023-05-10T04:02:38.289Z,100.00
2023-05-10T04:05:05.443Z,100.00
2023-05-10T04:07:31.904Z,100.00
2023-05-10T04:09:58.328Z,100.00
2023-05-10T04:12:25.030Z,100.00
2023-05-10T04:14:52.033Z,100.00
2023-05-10T04:17:18.557Z,100.00
2023-05-10T04:19:44.983Z,100.00
2023-05-10T04:22:11.444Z,100.00
2023-05-10T04:24:37.858Z,100.00
2023-05-10T04:27:04.328Z,100.00
2023-05-10T04:29:30.771Z,100.00
2023-05-10T04:31:57.636Z,100.00
2023-05-10T04:34:24.070Z,100.00
2023-05-10T04:36:51.497Z,100.00
2023-05-10T04:39:17.964Z,100.00
2023-05-10T04:41:44.432Z,100.00
2023-05-10T04:44:10.861Z,100.00
2023-05-10T04:46:37.392Z,100.00
2023-05-10T04:49:03.899Z,100.00
2023-05-10T04:51:30.412Z,100.00
2023-05-10T04:54:06.072Z,100.00
2023-05-10T04:56:33.485Z,100.00
2023-05-10T04:59:00.157Z,100.00
2023-05-10T05:01:26.842Z,100.00
2023-05-10T05:03:53.964Z,100.00
2023-05-10T05:06:21.956Z,100.00
2023-05-10T05:08:50.355Z,100.00
2023-05-10T05:11:17.993Z,100.00
2023-05-10T05:13:44.603Z,100.00
2023-05-10T05:16:12.185Z,100.00
2023-05-10T05:18:38.722Z,100.00
2023-05-10T05:21:15.052Z,100.00
2023-05-10T05:23:41.572Z,100.00
2023-05-10T05:26:07.976Z,100.00
2023-05-10T05:28:38.135Z,100.00
2023-05-10T05:31:05.761Z,100.00
2023-05-10T05:33:33.400Z,100.00
2023-05-10T05:36:03.930Z,100.00
2023-05-10T05:38:30.452Z,100.00
2023-05-10T05:40:57.998Z,100.00
2023-05-10T05:43:24.493Z,100.00
2023-05-10T05:45:57.502Z,100.00
2023-05-10T05:48:24.209Z,100.00
2023-05-10T05:50:51.060Z,100.00
2023-05-10T05:53:17.474Z,100.00
2023-05-10T05:55:58.199Z,100.00
2023-05-10T05:58:26.064Z,100.00
2023-05-10T06:00:53.105Z,100.00
2023-05-10T06:03:20.280Z,100.00
2023-05-10T06:05:46.999Z,100.00
2023-05-10T06:08:13.513Z,100.00
2023-05-10T06:10:39.968Z,100.00
2023-05-10T06:13:06.506Z,100.00
2023-05-10T06:15:33.641Z,100.00
2023-05-10T06:18:00.240Z,100.00
2023-05-10T06:20:26.935Z,100.00
2023-05-10T06:22:53.514Z,100.00
2023-05-10T06:25:19.965Z,100.00
2023-05-10T06:27:49.779Z,100.00
2023-05-10T06:30:17.573Z,100.00
2023-05-10T06:32:45.221Z,100.00
2023-05-10T06:35:11.965Z,100.00
2023-05-10T06:37:38.420Z,100.00
2023-05-10T06:40:06.096Z,100.00
2023-05-10T06:42:32.625Z,100.00
2023-05-10T06:44:59.098Z,100.00
2023-05-10T06:47:25.832Z,100.00
2023-05-10T06:49:52.304Z,100.00
2023-05-10T06:52:18.814Z,100.00
2023-05-10T06:54:45.425Z,100.00
2023-05-10T06:57:23.306Z,100.00
2023-05-10T06:59:58.442Z,100.00
2023-05-10T07:02:24.905Z,100.00
2023-05-10T07:04:53.013Z,100.00
2023-05-10T07:07:20.032Z,100.00
2023-05-10T07:09:46.855Z,100.00
2023-05-10T07:12:15.330Z,100.00
2023-05-10T07:14:42.447Z,100.00
2023-05-10T07:17:13.454Z,100.00
2023-05-10T07:19:40.064Z,100.00
2023-05-10T07:22:06.640Z,100.00
2023-05-10T07:24:34.137Z,100.00
2023-05-10T07:27:00.873Z,100.00
2023-05-10T07:29:28.389Z,100.00
2023-05-10T07:31:57.874Z,100.00
2023-05-10T07:34:25.612Z,100.00
2023-05-10T07:36:52.724Z,100.00
2023-05-10T07:39:26.711Z,100.00
2023-05-10T07:41:55.253Z,100.00
2023-05-10T07:44:21.706Z,100.00
2023-05-10T07:46:48.725Z,100.00
2023-05-10T07:49:15.345Z,100.00
2023-05-10T07:51:43.309Z,100.00
2023-05-10T07:54:09.747Z,100.00
2023-05-10T07:56:36.355Z,100.00
2023-05-10T07:59:05.022Z,100.00
2023-05-10T08:01:33.428Z,100.00
2023-05-10T08:04:05.056Z,100.00
2023-05-10T08:06:31.603Z,100.00
2023-05-10T08:08:58.238Z,100.00
2023-05-10T08:11:24.705Z,100.00
2023-05-10T08:13:52.053Z,100.00
2023-05-10T08:16:18.899Z,100.00
2023-05-10T08:18:47.714Z,100.00
2023-05-10T08:21:15.478Z,100.00
2023-05-10T08:23:42.052Z,100.00
2023-05-10T08:26:08.487Z,100.00
2023-05-10T08:28:35.000Z,100.00
2023-05-10T08:31:01.534Z,100.00
2023-05-10T08:33:28.110Z,100.00
2023-05-10T08:35:54.577Z,100.00
2023-05-10T08:38:21.303Z,100.00
2023-05-10T08:40:49.889Z,100.00
2023-05-10T08:43:16.473Z,99.82
2023-05-10T08:45:46.310Z,100.00
2023-05-10T08:48:12.878Z,99.41
2023-05-10T08:50:41.706Z,99.62
2023-05-10T08:53:12.061Z,99.87
2023-05-10T08:55:39.816Z,98.91
2023-05-10T08:58:07.313Z,99.55
2023-05-10T09:00:34.721Z,100.00
2023-05-10T09:03:02.613Z,100.00
2023-05-10T09:05:29.477Z,99.48
2023-05-10T09:07:56.282Z,98.56
2023-05-10T09:10:26.982Z,98.23
2023-05-10T09:12:58.547Z,96.71
2023-05-10T09:15:25.786Z,96.90
2023-05-10T09:17:52.513Z,96.63
2023-05-10T09:20:19.311Z,96.07
2023-05-10T09:22:45.965Z,95.41
2023-05-10T09:25:17.174Z,95.20
2023-05-10T09:27:48.214Z,93.94
2023-05-10T09:30:25.163Z,93.11
2023-05-10T09:32:51.899Z,90.89
2023-05-10T09:35:20.202Z,93.09
2023-05-10T09:37:51.294Z,92.22
2023-05-10T09:40:20.316Z,90.97
2023-05-10T09:43:09.998Z,89.62
2023-05-10T09:45:38.570Z,87.54
2023-05-10T09:48:06.248Z,86.32
2023-05-10T09:50:32.851Z,85.17
2023-05-10T09:53:04.311Z,84.58
2023-05-10T09:55:39.827Z,84.72
2023-05-10T09:58:11.114Z,85.59
2023-05-10T10:00:39.739Z,86.23
2023-05-10T10:03:06.620Z,87.42
2023-05-10T10:05:35.358Z,87.30
2023-05-10T10:08:05.799Z,88.61
2023-05-10T10:10:33.188Z,89.09
2023-05-10T10:13:00.645Z,87.66
2023-05-10T10:15:27.504Z,88.67
2023-05-10T10:17:55.746Z,89.60
2023-05-10T10:20:23.713Z,88.77
2023-05-10T10:22:50.346Z,89.94
2023-05-10T10:25:19.124Z,89.81
2023-05-10T10:27:54.843Z,88.65
2023-05-10T10:30:24.095Z,87.39
2023-05-10T10:33:16.846Z,87.67
2023-05-10T10:35:55.436Z,86.03
2023-05-10T10:38:22.943Z,86.51
2023-05-10T10:41:03.301Z,86.57
2023-05-10T10:43:30.463Z,86.54
2023-05-10T10:46:17.130Z,86.51
2023-05-10T10:48:52.642Z,87.93
2023-05-10T10:51:19.199Z,87.80
2023-05-10T10:53:48.574Z,86.37
2023-05-10T10:56:16.338Z,86.16
2023-05-10T10:58:52.290Z,86.42
2023-05-10T11:01:19.857Z,85.88
2023-05-10T11:04:01.742Z,85.91
2023-05-10T11:06:35.219Z,85.45
2023-05-10T11:09:09.415Z,85.02
2023-05-10T11:11:38.669Z,85.86
2023-05-10T11:14:07.193Z,86.37
2023-05-10T11:16:44.429Z,86.14
2023-05-10T11:19:18.473Z,85.76
2023-05-10T11:22:06.790Z,86.80
2023-05-10T11:24:34.755Z,85.10
2023-05-10T11:27:01.869Z,85.99
2023-05-10T11:29:28.389Z,87.27
2023-05-10T11:31:58.452Z,87.13
2023-05-10T11:34:36.203Z,86.72
2023-05-10T11:37:02.819Z,84.72
2023-05-10T11:39:32.953Z,84.38
2023-05-10T11:42:00.272Z,84.18
2023-05-10T11:44:33.766Z,83.96
2023-05-10T11:47:01.776Z,81.58
2023-05-10T11:49:28.494Z,81.29
2023-05-10T11:52:04.980Z,83.32
2023-05-10T11:54:32.018Z,81.70
2023-05-10T11:56:59.272Z,79.92
2023-05-10T11:59:26.305Z,81.42
2023-05-10T12:01:52.988Z,80.47
2023-05-10T12:04:20.099Z,80.07
2023-05-10T12:06:47.589Z,80.22
2023-05-10T12:09:15.786Z,80.59
2023-05-10T12:11:44.582Z,82.14
2023-05-10T12:14:11.869Z,83.22
2023-05-10T12:16:38.609Z,82.77
2023-05-10T12:19:06.418Z,83.33
2023-05-10T12:21:34.373Z,81.37
2023-05-10T12:24:04.236Z,79.26
2023-05-10T12:26:30.967Z,79.25
2023-05-10T12:29:13.893Z,79.50
2023-05-10T12:32:00.408Z,79.32
2023-05-10T12:34:37.194Z,78.79
2023-05-10T12:37:04.546Z,77.28
2023-05-10T12:40:00.206Z,78.21
2023-05-10T12:42:26.735Z,74.55
2023-05-10T12:44:59.291Z,73.24
2023-05-10T12:47:25.881Z,75.57
2023-05-10T12:49:52.309Z,73.56
2023-05-10T12:52:18.866Z,74.77
2023-05-10T12:54:45.375Z,75.77
2023-05-10T12:57:11.794Z,73.89
2023-05-10T12:59:38.466Z,73.54
2023-05-10T13:02:05.024Z,73.41
2023-05-10T13:04:31.509Z,74.23
2023-05-10T13:06:59.946Z,73.67
2023-05-10T13:09:28.034Z,75.58
2023-05-10T13:11:55.279Z,75.15
2023-05-10T13:14:22.100Z,74.52
2023-05-10T13:16:50.288Z,74.39
2023-05-10T13:19:17.753Z,75.44
2023-05-10T13:21:45.414Z,76.18
2023-05-10T13:24:14.635Z,78.69
2023-05-10T13:26:41.869Z,80.63
2023-05-10T13:29:08.951Z,82.11
2023-05-10T13:31:36.218Z,84.01
2023-05-10T13:34:03.437Z,84.57
2023-05-10T13:36:29.986Z,85.72
2023-05-10T13:38:59.213Z,87.24
2023-05-10T13:41:26.439Z,88.59
2023-05-10T13:43:52.880Z,88.07
2023-05-10T13:46:19.913Z,89.92
2023-05-10T13:48:46.429Z,90.37
2023-05-10T13:51:13.709Z,92.62
2023-05-10T13:53:40.168Z,92.25
2023-05-10T13:56:07.455Z,93.46
2023-05-10T13:58:33.838Z,94.09
2023-05-10T14:01:00.296Z,94.61
2023-05-10T14:03:27.090Z,95.67
2023-05-10T14:05:53.572Z,94.35
2023-05-10T14:08:21.159Z,95.16
2023-05-10T14:10:47.737Z,97.97
2023-05-10T14:13:14.273Z,98.30
2023-05-10T14:15:40.720Z,97.80
2023-05-10T14:18:07.222Z,98.62
2023-05-10T14:20:34.704Z,98.81
2023-05-10T14:23:01.305Z,97.67
2023-05-10T14:25:27.912Z,98.54
2023-05-10T14:27:55.574Z,98.30
2023-05-10T14:30:22.059Z,97.94
2023-05-10T14:32:48.516Z,98.54
2023-05-10T14:35:16.923Z,99.50
2023-05-10T14:37:45.824Z,99.22
2023-05-10T14:40:13.409Z,99.56
2023-05-10T14:42:39.898Z,99.67
2023-05-10T14:45:06.725Z,98.52
2023-05-10T14:47:33.262Z,99.50
2023-05-10T14:50:00.071Z,99.86
2023-05-10T14:52:26.796Z,100.00
2023-05-10T14:54:53.611Z,99.58
2023-05-10T14:57:20.195Z,100.00
2023-05-10T14:59:46.816Z,100.00
2023-05-10T15:02:14.554Z,99.79
2023-05-10T15:04:41.388Z,99.87
2023-05-10T15:07:08.334Z,100.00
2023-05-10T15:09:34.827Z,100.00
2023-05-10T15:12:01.550Z,99.39
2023-05-10T15:14:27.992Z,99.73
2023-05-10T15:16:54.564Z,99.99
2023-05-10T15:19:21.421Z,100.00
2023-05-10T15:21:48.346Z,100.00
2023-05-10T15:24:15.546Z,100.00
2023-05-10T15:26:42.159Z,100.00
2023-05-10T15:29:08.782Z,99.63
2023-05-10T15:31:36.846Z,99.89
2023-05-10T15:34:03.435Z,98.92
2023-05-10T15:36:29.863Z,98.99
2023-05-10T15:38:56.789Z,99.02
2023-05-10T15:41:23.701Z,98.71
2023-05-10T15:43:50.156Z,98.45
2023-05-10T15:46:16.630Z,98.29
2023-05-10T15:48:43.507Z,97.06
2023-05-10T15:51:10.321Z,97.18
2023-05-10T15:53:36.775Z,97.36
2023-05-10T15:56:04.636Z,96.75
2023-05-10T15:58:31.651Z,96.85
2023-05-10T16:00:58.225Z,96.92
2023-05-10T16:03:24.910Z,94.56
2023-05-10T16:05:51.393Z,95.77
2023-05-10T16:08:17.947Z,94.75
2023-05-10T16:10:44.408Z,95.04
2023-05-10T16:13:10.906Z,96.68
2023-05-10T16:15:37.396Z,95.97
2023-05-10T16:18:04.103Z,95.84
2023-05-10T16:20:31.304Z,95.96
2023-05-10T16:23:01.538Z,95.65
2023-05-10T16:25:27.955Z,95.71
2023-05-10T16:27:54.376Z,96.11
2023-05-10T16:30:23.561Z,96.50
2023-05-10T16:32:50.948Z,95.94
2023-05-10T16:35:17.679Z,96.35
2023-05-10T16:37:44.532Z,96.71
2023-05-10T16:40:11.278Z,95.90
2023-05-10T16:42:37.767Z,97.21
2023-05-10T16:45:07.780Z,96.39
2023-05-10T16:47:35.534Z,95.58
2023-05-10T16:50:05.931Z,96.47
2023-05-10T16:52:33.967Z,96.34
2023-05-10T16:55:00.988Z,96.17
2023-05-10T16:57:27.992Z,95.55
2023-05-10T16:59:54.607Z,93.96
2023-05-10T17:02:21.622Z,94.22
2023-05-10T17:04:48.400Z,92.50
2023-05-10T17:07:15.557Z,90.09
2023-05-10T17:09:43.328Z,89.85
2023-05-10T17:12:10.002Z,88.15
2023-05-10T17:14:40.061Z,88.20
2023-05-10T17:17:06.883Z,86.96
2023-05-10T17:19:33.862Z,85.92
2023-05-10T17:22:00.366Z,86.56
2023-05-10T17:24:29.572Z,86.38
2023-05-10T17:26:57.408Z,87.79
2023-05-10T17:29:24.070Z,87.97
2023-05-10T17:31:50.595Z,88.54
2023-05-10T17:34:17.049Z,88.38
2023-05-10T17:36:43.555Z,86.71
2023-05-10T17:39:10.014Z,87.69
2023-05-10T17:41:36.465Z,87.15
2023-05-10T17:44:02.912Z,87.41
2023-05-10T17:46:29.376Z,87.12
2023-05-10T17:48:55.828Z,89.10
2023-05-10T17:51:22.250Z,88.98
2023-05-10T17:53:48.709Z,90.05
2023-05-10T17:56:15.163Z,90.29
2023-05-10T17:58:41.861Z,88.96
2023-05-10T18:01:09.517Z,89.74
2023-05-10T18:03:36.111Z,89.26
2023-05-10T18:06:04.313Z,90.21
2023-05-10T18:08:31.091Z,90.03
2023-05-10T18:10:57.696Z,90.31
2023-05-10T18:13:25.642Z,89.75
2023-05-10T18:15:52.311Z,90.75
2023-05-10T18:18:18.778Z,90.57
2023-05-10T18:20:46.357Z,91.20
2023-05-10T18:23:13.249Z,91.44
2023-05-10T18:25:39.677Z,91.15
2023-05-10T18:28:07.886Z,91.38
2023-05-10T18:30:34.509Z,90.91
2023-05-10T18:33:01.147Z,90.75
2023-05-10T18:35:28.783Z,91.67
2023-05-10T18:37:56.172Z,90.99
2023-05-10T18:40:22.690Z,91.87
2023-05-10T18:42:50.555Z,91.35
2023-05-10T18:45:17.214Z,91.56
2023-05-10T18:47:44.135Z,91.25
2023-05-10T18:50:11.255Z,91.83
2023-05-10T18:52:37.742Z,91.80
2023-05-10T18:55:04.696Z,91.71
2023-05-10T18:57:31.324Z,92.16
2023-05-10T18:59:57.977Z,92.15
2023-05-10T19:02:26.575Z,92.15
2023-05-10T19:04:53.202Z,92.99
2023-05-10T19:07:19.726Z,92.90
2023-05-10T19:09:46.133Z,93.36
2023-05-10T19:12:12.719Z,93.32
2023-05-10T19:14:39.135Z,93.51
2023-05-10T19:17:07.762Z,93.59
2023-05-10T19:19:35.310Z,93.87
2023-05-10T19:22:03.252Z,93.83
2023-05-10T19:24:29.752Z,93.97
2023-05-10T19:26:57.824Z,93.72
2023-05-10T19:29:25.577Z,93.49
2023-05-10T19:31:53.080Z,93.52
2023-05-10T19:34:20.474Z,93.79
2023-05-10T19:36:46.992Z,94.26
2023-05-10T19:39:13.602Z,94.69
2023-05-10T19:41:40.104Z,95.04
2023-05-10T19:44:06.706Z,95.26
2023-05-10T19:46:33.501Z,95.63
2023-05-10T19:49:00.025Z,96.03
2023-05-10T19:51:26.691Z,96.55
2023-05-10T19:53:53.119Z,96.60
2023-05-10T19:56:19.553Z,96.47
2023-05-10T19:58:46.579Z,96.70
2023-05-10T20:01:13.261Z,96.32
2023-05-10T20:03:39.708Z,96.24
2023-05-10T20:06:06.230Z,96.18
2023-05-10T20:08:32.724Z,96.30
2023-05-10T20:11:02.125Z,96.14
2023-05-10T20:13:28.613Z,96.44
2023-05-10T20:15:56.428Z,96.58
2023-05-10T20:18:23.513Z,96.45
2023-05-10T20:20:59.619Z,96.54
2023-05-10T20:23:26.388Z,97.11
2023-05-10T20:25:53.632Z,97.18
2023-05-10T20:28:25.218Z,97.65
2023-05-10T20:30:53.437Z,97.82
2023-05-10T20:33:20.120Z,97.44
2023-05-10T20:35:46.694Z,97.66
2023-05-10T20:38:13.277Z,97.90
2023-05-10T20:40:40.075Z,97.76
2023-05-10T20:43:06.742Z,98.15
2023-05-10T20:45:33.370Z,98.44
2023-05-10T20:48:00.270Z,98.51
2023-05-10T20:50:26.910Z,98.93
2023-05-10T20:52:53.589Z,98.83
2023-05-10T20:55:20.971Z,98.58
2023-05-10T20:57:47.526Z,98.58
2023-05-10T21:00:14.614Z,98.81
2023-05-10T21:02:45.367Z,98.74
2023-05-10T21:05:12.498Z,98.89
2023-05-10T21:07:39.440Z,99.53
2023-05-10T21:10:10.432Z,99.54
2023-05-10T21:12:37.214Z,99.40
2023-05-10T21:15:04.304Z,99.41
2023-05-10T21:17:30.762Z,99.62
2023-05-10T21:19:57.244Z,99.40
2023-05-10T21:22:23.675Z,99.24
2023-05-10T21:24:50.124Z,99.49
2023-05-10T21:27:16.653Z,99.25
2023-05-10T21:29:43.111Z,99.31
2023-05-10T21:32:09.917Z,99.64
2023-05-10T21:34:36.520Z,99.83
2023-05-10T21:37:03.036Z,99.64
2023-05-10T21:39:29.516Z,100.00
2023-05-10T21:41:56.117Z,99.94
2023-05-10T21:44:22.651Z,100.00
2023-05-10T21:46:49.128Z,99.76
2023-05-10T21:49:15.599Z,100.00
2023-05-10T21:51:42.151Z,100.00
2023-05-10T21:54:08.576Z,100.00
2023-05-10T21:56:35.007Z,99.93
2023-05-10T21:59:01.458Z,100.00
2023-05-10T22:01:28.043Z,100.00
2023-05-10T22:03:54.683Z,100.00
2023-05-10T22:06:21.137Z,100.00
2023-05-10T22:08:47.566Z,100.00
2023-05-10T22:11:14.014Z,100.00
2023-05-10T22:13:40.448Z,100.00
2023-05-10T22:16:06.952Z,100.00
2023-05-10T22:18:33.388Z,100.00
2023-05-10T22:20:59.914Z,100.00
2023-05-10T22:23:26.359Z,100.00
2023-05-10T22:25:52.826Z,100.00
2023-05-10T22:28:19.277Z,100.00
2023-05-10T22:30:45.807Z,100.00
2023-05-10T22:33:12.357Z,100.00
2023-05-10T22:35:38.854Z,100.00
2023-05-10T22:38:05.370Z,100.00
2023-05-10T22:40:32.277Z,100.00
2023-05-10T22:42:58.718Z,100.00
2023-05-10T22:45:25.705Z,100.00
2023-05-10T22:47:52.365Z,100.00
2023-05-10T22:50:19.257Z,100.00
2023-05-10T22:52:45.892Z,100.00
2023-05-10T22:55:12.383Z,100.00
2023-05-10T22:57:39.008Z,100.00
2023-05-10T23:00:06.440Z,100.00
2023-05-10T23:02:32.947Z,100.00
2023-05-10T23:04:59.431Z,100.00
2023-05-10T23:07:25.904Z,100.00
2023-05-10T23:09:52.424Z,100.00
2023-05-10T23:12:18.929Z,100.00
2023-05-10T23:14:46.550Z,100.00
2023-05-10T23:17:13.585Z,100.00
2023-05-10T23:19:40.100Z,100.00
2023-05-10T23:22:06.614Z,100.00
2023-05-10T23:24:33.124Z,100.00
2023-05-10T23:27:00.007Z,100.00
2023-05-10T23:29:26.762Z,100.00
2023-05-10T23:31:53.357Z,100.00
2023-05-10T23:34:19.823Z,100.00
2023-05-10T23:36:46.314Z,100.00
2023-05-10T23:39:13.464Z,100.00
2023-05-10T23:41:39.992Z,100.00
2023-05-10T23:44:06.620Z,100.00
2023-05-10T23:46:33.099Z,100.00
2023-05-10T23:48:59.592Z,100.00
2023-05-10T23:51:26.077Z,100.00
2023-05-10T23:53:52.573Z,100.00
2023-05-10T23:56:19.157Z,100.00
2023-05-10T23:58:46.355Z,100.00
